sensor_id;sensor_type;location;lat;lon;timestamp;temperature;humidity
5011;DHT22;2524;54.364;10.072;2022-10-15T00:01:41;13.80;99.90
5011;DHT22;2524;54.364;10.072;2022-10-15T00:04:07;13.80;99.90
5011;DHT22;2524;54.364;10.072;2022-10-15T00:06:33;13.80;99.90
5011;DHT22;2524;54.364;10.072;2022-10-15T00:08:58;13.80;99.90
5011;DHT22;2524;54.364;10.072;2022-10-15T00:11:25;13.80;99.90
5011;DHT22;2524;54.364;10.072;2022-10-15T00:13:53;13.80;99.90
5011;DHT22;2524;54.364;10.072;2022-10-15T00:16:21;13.90;99.90
5011;DHT22;2524;54.364;10.072;2022-10-15T00:18:57;13.80;99.90
5011;DHT22;2524;54.364;10.072;2022-10-15T00:21:23;13.90;99.90
5011;DHT22;2524;54.364;10.072;2022-10-15T00:23:49;13.80;99.90
5011;DHT22;2524;54.364;10.072;2022-10-15T00:26:18;13.80;99.90
5011;DHT22;2524;54.364;10.072;2022-10-15T00:28:45;13.90;99.90
5011;DHT22;2524;54.364;10.072;2022-10-15T00:31:13;13.80;99.90
5011;DHT22;2524;54.364;10.072;2022-10-15T00:33:40;13.90;99.90
5011;DHT22;2524;54.364;10.072;2022-10-15T00:36:14;13.90;99.90
5011;DHT22;2524;54.364;10.072;2022-10-15T00:38:40;13.80;99.90
5011;DHT22;2524;54.364;10.072;2022-10-15T00:41:07;13.90;99.90
5011;DHT22;2524;54.364;10.072;2022-10-15T00:43:54;14.00;99.90
5011;DHT22;2524;54.364;10.072;2022-10-15T00:46:34;13.90;99.90
5011;DHT22;2524;54.364;10.072;2022-10-15T00:52:06;13.90;99.90
5011;DHT22;2524;54.364;10.072;2022-10-15T00:54:39;13.90;99.90
5011;DHT22;2524;54.364;10.072;2022-10-15T00:57:06;14.00;99.90
5011;DHT22;2524;54.364;10.072;2022-10-15T00:59:37;13.90;99.90
5011;DHT22;2524;54.364;10.072;2022-10-15T01:02:03;13.90;99.90
5011;DHT22;2524;54.364;10.072;2022-10-15T01:04:29;14.00;99.90
5011;DHT22;2524;54.364;10.072;2022-10-15T01:06:55;13.90;99.90
5011;DHT22;2524;54.364;10.072;2022-10-15T01:09:21;13.90;99.90
5011;DHT22;2524;54.364;10.072;2022-10-15T01:11:47;13.90;99.90
5011;DHT22;2524;54.364;10.072;2022-10-15T01:22:19;13.90;99.90
5011;DHT22;2524;54.364;10.072;2022-10-15T01:25:07;14.00;99.90
5011;DHT22;2524;54.364;10.072;2022-10-15T01:27:42;13.90;99.90
5011;DHT22;2524;54.364;10.072;2022-10-15T01:30:38;14.10;99.90
5011;DHT22;2524;54.364;10.072;2022-10-15T01:36:13;13.90;99.90
5011;DHT22;2524;54.364;10.072;2022-10-15T01:38:59;13.90;99.90
5011;DHT22;2524;54.364;10.072;2022-10-15T01:41:41;14.10;99.90
5011;DHT22;2524;54.364;10.072;2022-10-15T01:44:16;14.00;99.90
5011;DHT22;2524;54.364;10.072;2022-10-15T01:46:57;14.00;99.90
5011;DHT22;2524;54.364;10.072;2022-10-15T01:49:29;14.00;99.90
5011;DHT22;2524;54.364;10.072;2022-10-15T01:51:56;14.00;99.90
5011;DHT22;2524;54.364;10.072;2022-10-15T01:54:24;14.00;99.90
5011;DHT22;2524;54.364;10.072;2022-10-15T01:56:51;14.00;99.90
5011;DHT22;2524;54.364;10.072;2022-10-15T01:59:21;13.90;99.90
5011;DHT22;2524;54.364;10.072;2022-10-15T02:01:47;14.00;99.90
5011;DHT22;2524;54.364;10.072;2022-10-15T02:04:22;14.10;99.90
5011;DHT22;2524;54.364;10.072;2022-10-15T02:07:51;14.00;99.90
5011;DHT22;2524;54.364;10.072;2022-10-15T02:18:17;14.10;99.90
5011;DHT22;2524;54.364;10.072;2022-10-15T02:21:05;14.00;99.90
5011;DHT22;2524;54.364;10.072;2022-10-15T02:24:05;13.90;99.90
5011;DHT22;2524;54.364;10.072;2022-10-15T02:26:33;13.90;99.90
5011;DHT22;2524;54.364;10.072;2022-10-15T02:29:00;13.90;99.90
5011;DHT22;2524;54.364;10.072;2022-10-15T02:31:29;13.90;99.90
5011;DHT22;2524;54.364;10.072;2022-10-15T02:34:01;13.90;99.90
5011;DHT22;2524;54.364;10.072;2022-10-15T02:36:28;14.00;99.90
5011;DHT22;2524;54.364;10.072;2022-10-15T02:38:55;13.90;99.90
5011;DHT22;2524;54.364;10.072;2022-10-15T02:41:22;14.00;99.90
5011;DHT22;2524;54.364;10.072;2022-10-15T02:43:48;13.90;99.90
5011;DHT22;2524;54.364;10.072;2022-10-15T02:46:15;13.90;99.90
5011;DHT22;2524;54.364;10.072;2022-10-15T02:48:42;13.80;99.90
5011;DHT22;2524;54.364;10.072;2022-10-15T02:51:07;13.90;99.90
5011;DHT22;2524;54.364;10.072;2022-10-15T02:53:33;13.90;99.90
5011;DHT22;2524;54.364;10.072;2022-10-15T02:55:59;13.90;99.90
5011;DHT22;2524;54.364;10.072;2022-10-15T02:58:24;13.80;99.90
5011;DHT22;2524;54.364;10.072;2022-10-15T03:00:50;13.80;99.90
5011;DHT22;2524;54.364;10.072;2022-10-15T03:03:16;14.00;99.90
5011;DHT22;2524;54.364;10.072;2022-10-15T03:05:42;13.90;99.90
5011;DHT22;2524;54.364;10.072;2022-10-15T03:08:07;13.80;99.90
5011;DHT22;2524;54.364;10.072;2022-10-15T03:10:33;13.90;99.90
5011;DHT22;2524;54.364;10.072;2022-10-15T03:13:03;13.80;99.90
5011;DHT22;2524;54.364;10.072;2022-10-15T03:15:29;13.90;99.90
5011;DHT22;2524;54.364;10.072;2022-10-15T03:17:54;13.80;99.90
5011;DHT22;2524;54.364;10.072;2022-10-15T03:20:20;13.80;99.90
5011;DHT22;2524;54.364;10.072;2022-10-15T03:22:45;13.90;99.90
5011;DHT22;2524;54.364;10.072;2022-10-15T03:25:11;13.90;99.90
5011;DHT22;2524;54.364;10.072;2022-10-15T03:27:37;13.80;99.90
5011;DHT22;2524;54.364;10.072;2022-10-15T03:30:03;13.90;99.90
5011;DHT22;2524;54.364;10.072;2022-10-15T03:32:28;13.80;99.90
5011;DHT22;2524;54.364;10.072;2022-10-15T03:34:54;13.80;99.90
5011;DHT22;2524;54.364;10.072;2022-10-15T03:37:19;13.90;99.90
5011;DHT22;2524;54.364;10.072;2022-10-15T03:39:45;13.80;99.90
5011;DHT22;2524;54.364;10.072;2022-10-15T03:42:11;13.80;99.90
5011;DHT22;2524;54.364;10.072;2022-10-15T03:44:36;13.90;99.90
5011;DHT22;2524;54.364;10.072;2022-10-15T03:47:02;13.90;99.90
5011;DHT22;2524;54.364;10.072;2022-10-15T03:49:27;13.80;99.90
5011;DHT22;2524;54.364;10.072;2022-10-15T03:51:53;13.80;99.90
5011;DHT22;2524;54.364;10.072;2022-10-15T03:54:18;13.90;99.90
5011;DHT22;2524;54.364;10.072;2022-10-15T03:56:44;13.80;99.90
5011;DHT22;2524;54.364;10.072;2022-10-15T03:59:10;13.80;99.90
5011;DHT22;2524;54.364;10.072;2022-10-15T04:01:35;13.70;99.90
5011;DHT22;2524;54.364;10.072;2022-10-15T04:04:01;13.70;99.90
5011;DHT22;2524;54.364;10.072;2022-10-15T04:06:26;13.70;99.90
5011;DHT22;2524;54.364;10.072;2022-10-15T04:08:52;13.70;99.90
5011;DHT22;2524;54.364;10.072;2022-10-15T04:11:17;13.70;99.90
5011;DHT22;2524;54.364;10.072;2022-10-15T04:13:47;13.70;99.90
5011;DHT22;2524;54.364;10.072;2022-10-15T04:16:13;13.70;99.90
5011;DHT22;2524;54.364;10.072;2022-10-15T04:18:38;13.70;99.90
5011;DHT22;2524;54.364;10.072;2022-10-15T04:21:04;13.70;99.90
5011;DHT22;2524;54.364;10.072;2022-10-15T04:23:30;13.60;99.90
5011;DHT22;2524;54.364;10.072;2022-10-15T04:25:58;13.70;99.90
5011;DHT22;2524;54.364;10.072;2022-10-15T04:28:24;13.70;99.90
5011;DHT22;2524;54.364;10.072;2022-10-15T04:30:50;13.60;99.90
5011;DHT22;2524;54.364;10.072;2022-10-15T04:33:15;13.70;99.90
5011;DHT22;2524;54.364;10.072;2022-10-15T04:35:41;13.60;99.90
5011;DHT22;2524;54.364;10.072;2022-10-15T04:38:06;13.70;99.90
5011;DHT22;2524;54.364;10.072;2022-10-15T04:40:32;13.60;99.90
5011;DHT22;2524;54.364;10.072;2022-10-15T04:42:58;13.60;99.90
5011;DHT22;2524;54.364;10.072;2022-10-15T04:45:23;13.60;99.90
5011;DHT22;2524;54.364;10.072;2022-10-15T04:47:49;13.60;99.90
5011;DHT22;2524;54.364;10.072;2022-10-15T04:50:14;13.60;99.90
5011;DHT22;2524;54.364;10.072;2022-10-15T04:52:40;13.60;99.90
5011;DHT22;2524;54.364;10.072;2022-10-15T04:55:06;13.70;99.90
5011;DHT22;2524;54.364;10.072;2022-10-15T04:57:31;13.60;99.90
5011;DHT22;2524;54.364;10.072;2022-10-15T04:59:57;13.60;99.90
5011;DHT22;2524;54.364;10.072;2022-10-15T05:02:23;13.70;99.90
5011;DHT22;2524;54.364;10.072;2022-10-15T05:04:49;13.60;99.90
5011;DHT22;2524;54.364;10.072;2022-10-15T05:07:14;13.60;99.90
5011;DHT22;2524;54.364;10.072;2022-10-15T05:09:40;13.60;99.90
5011;DHT22;2524;54.364;10.072;2022-10-15T05:12:06;13.60;99.90
5011;DHT22;2524;54.364;10.072;2022-10-15T05:14:31;13.60;99.90
5011;DHT22;2524;54.364;10.072;2022-10-15T05:16:57;13.60;99.90
5011;DHT22;2524;54.364;10.072;2022-10-15T05:19:22;13.50;99.90
5011;DHT22;2524;54.364;10.072;2022-10-15T05:21:48;13.50;99.90
5011;DHT22;2524;54.364;10.072;2022-10-15T05:24:14;13.60;99.90
5011;DHT22;2524;54.364;10.072;2022-10-15T05:26:39;13.50;99.90
5011;DHT22;2524;54.364;10.072;2022-10-15T05:29:05;13.50;99.90
5011;DHT22;2524;54.364;10.072;2022-10-15T05:31:32;13.50;99.90
5011;DHT22;2524;54.364;10.072;2022-10-15T05:33:59;13.50;99.90
5011;DHT22;2524;54.364;10.072;2022-10-15T05:36:29;13.50;99.90
5011;DHT22;2524;54.364;10.072;2022-10-15T05:39:00;13.50;99.90
5011;DHT22;2524;54.364;10.072;2022-10-15T05:41:26;13.50;99.90
5011;DHT22;2524;54.364;10.072;2022-10-15T05:43:53;13.60;99.90
5011;DHT22;2524;54.364;10.072;2022-10-15T05:46:20;13.50;99.90
5011;DHT22;2524;54.364;10.072;2022-10-15T05:48:50;13.50;99.90
5011;DHT22;2524;54.364;10.072;2022-10-15T05:51:16;13.60;99.90
5011;DHT22;2524;54.364;10.072;2022-10-15T05:53:41;13.50;99.90
5011;DHT22;2524;54.364;10.072;2022-10-15T05:56:08;13.40;99.90
5011;DHT22;2524;54.364;10.072;2022-10-15T05:58:34;13.50;99.90
5011;DHT22;2524;54.364;10.072;2022-10-15T06:01:02;13.40;99.90
5011;DHT22;2524;54.364;10.072;2022-10-15T06:03:28;13.50;99.90
5011;DHT22;2524;54.364;10.072;2022-10-15T06:05:54;13.50;99.90
5011;DHT22;2524;54.364;10.072;2022-10-15T06:08:20;13.50;99.90
5011;DHT22;2524;54.364;10.072;2022-10-15T06:10:46;13.50;99.90
5011;DHT22;2524;54.364;10.072;2022-10-15T06:13:13;13.40;99.90
5011;DHT22;2524;54.364;10.072;2022-10-15T06:15:40;13.50;99.90
5011;DHT22;2524;54.364;10.072;2022-10-15T06:18:06;13.40;99.90
5011;DHT22;2524;54.364;10.072;2022-10-15T06:20:31;13.40;99.90
5011;DHT22;2524;54.364;10.072;2022-10-15T06:22:58;13.40;99.90
5011;DHT22;2524;54.364;10.072;2022-10-15T06:25:24;13.50;99.90
5011;DHT22;2524;54.364;10.072;2022-10-15T06:27:50;13.50;99.90
5011;DHT22;2524;54.364;10.072;2022-10-15T06:30:16;13.40;99.90
5011;DHT22;2524;54.364;10.072;2022-10-15T06:32:49;13.50;99.90
5011;DHT22;2524;54.364;10.072;2022-10-15T06:35:16;13.50;99.90
5011;DHT22;2524;54.364;10.072;2022-10-15T06:37:42;13.60;99.90
5011;DHT22;2524;54.364;10.072;2022-10-15T06:40:08;13.60;99.90
5011;DHT22;2524;54.364;10.072;2022-10-15T06:42:34;13.50;99.90
5011;DHT22;2524;54.364;10.072;2022-10-15T06:45:00;13.50;99.90
5011;DHT22;2524;54.364;10.072;2022-10-15T06:47:26;13.50;99.90
5011;DHT22;2524;54.364;10.072;2022-10-15T06:49:51;13.50;99.90
5011;DHT22;2524;54.364;10.072;2022-10-15T06:52:17;13.40;99.90
5011;DHT22;2524;54.364;10.072;2022-10-15T06:54:42;13.50;99.90
5011;DHT22;2524;54.364;10.072;2022-10-15T06:57:08;13.40;99.90
5011;DHT22;2524;54.364;10.072;2022-10-15T06:59:34;13.50;99.90
5011;DHT22;2524;54.364;10.072;2022-10-15T07:01:59;13.40;99.90
5011;DHT22;2524;54.364;10.072;2022-10-15T07:04:25;13.40;99.90
5011;DHT22;2524;54.364;10.072;2022-10-15T07:06:53;13.40;99.90
5011;DHT22;2524;54.364;10.072;2022-10-15T07:09:22;13.40;99.90
5011;DHT22;2524;54.364;10.072;2022-10-15T07:11:48;13.40;99.90
5011;DHT22;2524;54.364;10.072;2022-10-15T07:14:13;13.50;99.90
5011;DHT22;2524;54.364;10.072;2022-10-15T07:16:39;13.40;99.90
5011;DHT22;2524;54.364;10.072;2022-10-15T07:19:05;13.50;99.90
5011;DHT22;2524;54.364;10.072;2022-10-15T07:21:30;13.40;99.90
5011;DHT22;2524;54.364;10.072;2022-10-15T07:23:56;13.40;99.90
5011;DHT22;2524;54.364;10.072;2022-10-15T07:26:22;13.40;99.90
5011;DHT22;2524;54.364;10.072;2022-10-15T07:28:48;13.40;99.90
5011;DHT22;2524;54.364;10.072;2022-10-15T07:31:14;13.30;99.90
5011;DHT22;2524;54.364;10.072;2022-10-15T07:33:41;13.30;99.90
5011;DHT22;2524;54.364;10.072;2022-10-15T07:36:09;13.40;99.90
5011;DHT22;2524;54.364;10.072;2022-10-15T07:38:35;13.30;99.90
5011;DHT22;2524;54.364;10.072;2022-10-15T07:41:02;13.30;99.90
5011;DHT22;2524;54.364;10.072;2022-10-15T07:43:28;13.30;99.90
5011;DHT22;2524;54.364;10.072;2022-10-15T07:45:54;13.30;99.90
5011;DHT22;2524;54.364;10.072;2022-10-15T07:48:19;13.30;99.90
5011;DHT22;2524;54.364;10.072;2022-10-15T07:50:45;13.30;99.90
5011;DHT22;2524;54.364;10.072;2022-10-15T07:53:10;13.40;99.90
5011;DHT22;2524;54.364;10.072;2022-10-15T07:55:36;13.40;99.90
5011;DHT22;2524;54.364;10.072;2022-10-15T07:58:03;13.30;99.90
5011;DHT22;2524;54.364;10.072;2022-10-15T08:00:31;13.30;99.90
5011;DHT22;2524;54.364;10.072;2022-10-15T08:02:56;13.40;99.90
5011;DHT22;2524;54.364;10.072;2022-10-15T08:05:22;13.40;99.90
5011;DHT22;2524;54.364;10.072;2022-10-15T08:07:48;13.30;99.90
5011;DHT22;2524;54.364;10.072;2022-10-15T08:10:14;13.30;99.90
5011;DHT22;2524;54.364;10.072;2022-10-15T08:12:39;13.30;99.90
5011;DHT22;2524;54.364;10.072;2022-10-15T08:15:06;13.40;99.90
5011;DHT22;2524;54.364;10.072;2022-10-15T08:17:31;13.30;99.90
5011;DHT22;2524;54.364;10.072;2022-10-15T08:19:57;13.30;99.90
5011;DHT22;2524;54.364;10.072;2022-10-15T08:22:22;13.30;99.90
5011;DHT22;2524;54.364;10.072;2022-10-15T08:24:48;13.30;99.90
5011;DHT22;2524;54.364;10.072;2022-10-15T08:27:14;13.40;99.90
5011;DHT22;2524;54.364;10.072;2022-10-15T08:29:39;13.30;99.90
5011;DHT22;2524;54.364;10.072;2022-10-15T08:32:05;13.30;99.90
5011;DHT22;2524;54.364;10.072;2022-10-15T08:34:30;13.30;99.90
5011;DHT22;2524;54.364;10.072;2022-10-15T08:36:56;13.40;99.90
5011;DHT22;2524;54.364;10.072;2022-10-15T08:39:22;13.30;99.90
5011;DHT22;2524;54.364;10.072;2022-10-15T08:42:02;13.30;99.90
5011;DHT22;2524;54.364;10.072;2022-10-15T08:47:05;13.40;99.90
5011;DHT22;2524;54.364;10.072;2022-10-15T08:55:14;13.40;99.90
5011;DHT22;2524;54.364;10.072;2022-10-15T09:00:35;13.50;99.90
5011;DHT22;2524;54.364;10.072;2022-10-15T09:03:26;13.50;99.90
5011;DHT22;2524;54.364;10.072;2022-10-15T09:08:38;13.40;99.90
5011;DHT22;2524;54.364;10.072;2022-10-15T09:13:55;13.50;99.90
5011;DHT22;2524;54.364;10.072;2022-10-15T09:16:27;13.50;99.90
5011;DHT22;2524;54.364;10.072;2022-10-15T09:18:53;13.50;99.90
5011;DHT22;2524;54.364;10.072;2022-10-15T09:21:23;13.50;99.90
5011;DHT22;2524;54.364;10.072;2022-10-15T09:23:50;13.40;99.90
5011;DHT22;2524;54.364;10.072;2022-10-15T09:26:38;13.40;99.90
5011;DHT22;2524;54.364;10.072;2022-10-15T09:29:30;13.40;99.90
5011;DHT22;2524;54.364;10.072;2022-10-15T09:34:54;13.50;99.90
5011;DHT22;2524;54.364;10.072;2022-10-15T09:37:32;13.60;99.90
5011;DHT22;2524;54.364;10.072;2022-10-15T09:43:22;13.50;99.90
5011;DHT22;2524;54.364;10.072;2022-10-15T09:45:52;13.60;99.90
5011;DHT22;2524;54.364;10.072;2022-10-15T09:48:18;13.60;99.90
5011;DHT22;2524;54.364;10.072;2022-10-15T09:51:20;13.70;99.90
5011;DHT22;2524;54.364;10.072;2022-10-15T09:56:37;13.70;99.90
5011;DHT22;2524;54.364;10.072;2022-10-15T09:59:04;13.70;99.90
5011;DHT22;2524;54.364;10.072;2022-10-15T10:01:32;13.70;99.90
5011;DHT22;2524;54.364;10.072;2022-10-15T10:04:16;13.70;99.90
5011;DHT22;2524;54.364;10.072;2022-10-15T10:06:52;13.70;99.90
5011;DHT22;2524;54.364;10.072;2022-10-15T10:11:51;13.80;99.90
5011;DHT22;2524;54.364;10.072;2022-10-15T10:14:24;13.80;99.90
5011;DHT22;2524;54.364;10.072;2022-10-15T10:19:28;13.70;99.90
5011;DHT22;2524;54.364;10.072;2022-10-15T10:22:15;13.80;99.90
5011;DHT22;2524;54.364;10.072;2022-10-15T10:24:41;13.80;99.90
5011;DHT22;2524;54.364;10.072;2022-10-15T10:27:24;13.80;99.90
5011;DHT22;2524;54.364;10.072;2022-10-15T10:29:58;13.90;99.90
5011;DHT22;2524;54.364;10.072;2022-10-15T10:32:33;13.80;99.90
5011;DHT22;2524;54.364;10.072;2022-10-15T10:35:00;13.90;99.90
5011;DHT22;2524;54.364;10.072;2022-10-15T10:37:27;13.90;99.90
5011;DHT22;2524;54.364;10.072;2022-10-15T10:39:55;14.00;99.90
5011;DHT22;2524;54.364;10.072;2022-10-15T10:42:34;14.00;99.90
5011;DHT22;2524;54.364;10.072;2022-10-15T10:45:21;14.00;99.90
5011;DHT22;2524;54.364;10.072;2022-10-15T10:47:47;13.90;99.90
5011;DHT22;2524;54.364;10.072;2022-10-15T10:50:31;14.00;99.90
5011;DHT22;2524;54.364;10.072;2022-10-15T10:53:19;14.00;99.90
5011;DHT22;2524;54.364;10.072;2022-10-15T10:55:45;14.00;99.90
5011;DHT22;2524;54.364;10.072;2022-10-15T10:58:18;14.10;99.90
5011;DHT22;2524;54.364;10.072;2022-10-15T11:00:48;14.20;99.90
5011;DHT22;2524;54.364;10.072;2022-10-15T11:03:39;14.10;99.90
5011;DHT22;2524;54.364;10.072;2022-10-15T11:06:27;14.10;99.90
5011;DHT22;2524;54.364;10.072;2022-10-15T11:09:41;14.10;99.90
5011;DHT22;2524;54.364;10.072;2022-10-15T11:15:35;14.20;99.90
5011;DHT22;2524;54.364;10.072;2022-10-15T11:24:15;14.30;99.90
5011;DHT22;2524;54.364;10.072;2022-10-15T11:29:55;14.50;99.90
5011;DHT22;2524;54.364;10.072;2022-10-15T11:32:47;14.60;99.90
5011;DHT22;2524;54.364;10.072;2022-10-15T11:35:29;14.60;99.90
5011;DHT22;2524;54.364;10.072;2022-10-15T11:41:00;14.70;99.90
5011;DHT22;2524;54.364;10.072;2022-10-15T11:52:06;15.20;99.90
5011;DHT22;2524;54.364;10.072;2022-10-15T11:56:59;15.50;99.90
5011;DHT22;2524;54.364;10.072;2022-10-15T12:04:41;15.60;99.90
5011;DHT22;2524;54.364;10.072;2022-10-15T12:07:15;15.70;99.90
5011;DHT22;2524;54.364;10.072;2022-10-15T12:09:43;15.60;99.90
5011;DHT22;2524;54.364;10.072;2022-10-15T12:15:14;15.60;99.90
5011;DHT22;2524;54.364;10.072;2022-10-15T12:20:44;15.70;99.90
5011;DHT22;2524;54.364;10.072;2022-10-15T12:23:23;15.70;99.90
5011;DHT22;2524;54.364;10.072;2022-10-15T12:25:49;15.70;99.90
5011;DHT22;2524;54.364;10.072;2022-10-15T12:28:22;15.70;99.90
5011;DHT22;2524;54.364;10.072;2022-10-15T12:31:00;15.70;99.90
5011;DHT22;2524;54.364;10.072;2022-10-15T12:33:33;15.70;99.90
5011;DHT22;2524;54.364;10.072;2022-10-15T12:41:40;15.70;99.90
5011;DHT22;2524;54.364;10.072;2022-10-15T12:44:27;15.70;99.90
5011;DHT22;2524;54.364;10.072;2022-10-15T12:46:53;15.70;99.90
5011;DHT22;2524;54.364;10.072;2022-10-15T12:51:54;15.80;99.90
5011;DHT22;2524;54.364;10.072;2022-10-15T12:54:35;15.70;99.90
5011;DHT22;2524;54.364;10.072;2022-10-15T12:57:03;15.80;99.90
5011;DHT22;2524;54.364;10.072;2022-10-15T12:59:54;15.70;99.90
5011;DHT22;2524;54.364;10.072;2022-10-15T13:02:47;15.80;99.90
5011;DHT22;2524;54.364;10.072;2022-10-15T13:05:30;15.80;99.90
5011;DHT22;2524;54.364;10.072;2022-10-15T13:07:58;15.80;99.90
5011;DHT22;2524;54.364;10.072;2022-10-15T13:10:38;15.80;99.90
5011;DHT22;2524;54.364;10.072;2022-10-15T13:13:10;15.80;99.90
5011;DHT22;2524;54.364;10.072;2022-10-15T13:15:38;15.80;99.90
5011;DHT22;2524;54.364;10.072;2022-10-15T13:18:11;15.90;99.90
5011;DHT22;2524;54.364;10.072;2022-10-15T13:20:42;16.00;99.90
5011;DHT22;2524;54.364;10.072;2022-10-15T13:23:18;16.10;99.90
5011;DHT22;2524;54.364;10.072;2022-10-15T13:25:46;16.20;99.90
5011;DHT22;2524;54.364;10.072;2022-10-15T13:28:32;16.20;99.90
5011;DHT22;2524;54.364;10.072;2022-10-15T13:31:04;16.30;99.90
5011;DHT22;2524;54.364;10.072;2022-10-15T13:33:30;16.40;99.90
5011;DHT22;2524;54.364;10.072;2022-10-15T13:36:05;16.40;99.90
5011;DHT22;2524;54.364;10.072;2022-10-15T13:38:31;16.30;99.90
5011;DHT22;2524;54.364;10.072;2022-10-15T13:40:58;16.30;99.90
5011;DHT22;2524;54.364;10.072;2022-10-15T13:43:25;16.40;99.90
5011;DHT22;2524;54.364;10.072;2022-10-15T13:45:59;16.30;99.90
5011;DHT22;2524;54.364;10.072;2022-10-15T13:48:30;16.30;99.90
5011;DHT22;2524;54.364;10.072;2022-10-15T13:51:03;16.30;99.90
5011;DHT22;2524;54.364;10.072;2022-10-15T13:53:30;16.20;99.90
5011;DHT22;2524;54.364;10.072;2022-10-15T13:55:59;16.20;99.90
5011;DHT22;2524;54.364;10.072;2022-10-15T13:58:30;16.20;99.90
5011;DHT22;2524;54.364;10.072;2022-10-15T14:01:20;16.20;99.90
5011;DHT22;2524;54.364;10.072;2022-10-15T14:03:58;16.20;99.90
5011;DHT22;2524;54.364;10.072;2022-10-15T14:06:25;16.20;99.90
5011;DHT22;2524;54.364;10.072;2022-10-15T14:08:56;16.20;99.90
5011;DHT22;2524;54.364;10.072;2022-10-15T14:11:22;16.10;99.90
5011;DHT22;2524;54.364;10.072;2022-10-15T14:13:53;16.10;99.90
5011;DHT22;2524;54.364;10.072;2022-10-15T14:16:38;16.10;99.90
5011;DHT22;2524;54.364;10.072;2022-10-15T14:21:31;16.10;99.90
5011;DHT22;2524;54.364;10.072;2022-10-15T14:24:16;16.10;99.90
5011;DHT22;2524;54.364;10.072;2022-10-15T14:26:43;16.10;99.90
5011;DHT22;2524;54.364;10.072;2022-10-15T14:29:21;16.10;99.90
5011;DHT22;2524;54.364;10.072;2022-10-15T14:31:49;16.20;99.90
5011;DHT22;2524;54.364;10.072;2022-10-15T14:36:59;16.30;99.90
5011;DHT22;2524;54.364;10.072;2022-10-15T14:39:33;16.20;99.90
5011;DHT22;2524;54.364;10.072;2022-10-15T14:42:02;16.30;99.90
5011;DHT22;2524;54.364;10.072;2022-10-15T14:44:43;16.20;99.90
5011;DHT22;2524;54.364;10.072;2022-10-15T14:47:18;16.30;99.90
5011;DHT22;2524;54.364;10.072;2022-10-15T14:49:45;16.20;99.90
5011;DHT22;2524;54.364;10.072;2022-10-15T14:52:14;16.20;99.90
5011;DHT22;2524;54.364;10.072;2022-10-15T14:55:05;16.10;99.90
5011;DHT22;2524;54.364;10.072;2022-10-15T14:57:37;16.10;99.90
5011;DHT22;2524;54.364;10.072;2022-10-15T15:00:27;16.00;99.90
5011;DHT22;2524;54.364;10.072;2022-10-15T15:02:53;16.00;99.90
5011;DHT22;2524;54.364;10.072;2022-10-15T15:05:22;16.00;99.90
5011;DHT22;2524;54.364;10.072;2022-10-15T15:07:48;15.90;99.90
5011;DHT22;2524;54.364;10.072;2022-10-15T15:10:14;15.90;99.90
5011;DHT22;2524;54.364;10.072;2022-10-15T15:12:45;15.80;99.90
5011;DHT22;2524;54.364;10.072;2022-10-15T15:15:18;16.00;99.90
5011;DHT22;2524;54.364;10.072;2022-10-15T15:17:44;15.90;99.90
5011;DHT22;2524;54.364;10.072;2022-10-15T15:20:10;15.90;99.90
5011;DHT22;2524;54.364;10.072;2022-10-15T15:22:36;15.80;99.90
5011;DHT22;2524;54.364;10.072;2022-10-15T15:25:18;15.80;99.90
5011;DHT22;2524;54.364;10.072;2022-10-15T15:27:43;15.80;99.90
5011;DHT22;2524;54.364;10.072;2022-10-15T15:30:18;15.80;99.90
5011;DHT22;2524;54.364;10.072;2022-10-15T15:32:44;15.80;99.90
5011;DHT22;2524;54.364;10.072;2022-10-15T15:35:34;15.70;99.90
5011;DHT22;2524;54.364;10.072;2022-10-15T15:38:01;15.70;99.90
5011;DHT22;2524;54.364;10.072;2022-10-15T15:40:26;15.70;99.90
5011;DHT22;2524;54.364;10.072;2022-10-15T15:42:52;15.70;99.90
5011;DHT22;2524;54.364;10.072;2022-10-15T15:45:24;15.70;99.90
5011;DHT22;2524;54.364;10.072;2022-10-15T15:47:50;15.70;99.90
5011;DHT22;2524;54.364;10.072;2022-10-15T15:50:17;15.70;99.90
5011;DHT22;2524;54.364;10.072;2022-10-15T15:52:43;15.60;99.90
5011;DHT22;2524;54.364;10.072;2022-10-15T15:55:09;15.60;99.90
5011;DHT22;2524;54.364;10.072;2022-10-15T15:57:34;15.60;99.90
5011;DHT22;2524;54.364;10.072;2022-10-15T16:00:00;15.70;99.90
5011;DHT22;2524;54.364;10.072;2022-10-15T16:02:26;15.70;99.90
5011;DHT22;2524;54.364;10.072;2022-10-15T16:04:52;15.60;99.90
5011;DHT22;2524;54.364;10.072;2022-10-15T16:07:17;15.60;99.90
5011;DHT22;2524;54.364;10.072;2022-10-15T16:09:43;15.60;99.90
5011;DHT22;2524;54.364;10.072;2022-10-15T16:12:09;15.60;99.90
5011;DHT22;2524;54.364;10.072;2022-10-15T16:14:34;15.60;99.90
5011;DHT22;2524;54.364;10.072;2022-10-15T16:17:00;15.60;99.90
5011;DHT22;2524;54.364;10.072;2022-10-15T16:19:25;15.60;99.90
5011;DHT22;2524;54.364;10.072;2022-10-15T16:21:51;15.60;99.90
5011;DHT22;2524;54.364;10.072;2022-10-15T16:24:16;15.60;99.90
5011;DHT22;2524;54.364;10.072;2022-10-15T16:26:42;15.60;99.90
5011;DHT22;2524;54.364;10.072;2022-10-15T16:29:08;15.50;99.90
5011;DHT22;2524;54.364;10.072;2022-10-15T16:31:34;15.50;99.90
5011;DHT22;2524;54.364;10.072;2022-10-15T16:34:02;15.50;99.90
5011;DHT22;2524;54.364;10.072;2022-10-15T16:36:28;15.50;99.90
5011;DHT22;2524;54.364;10.072;2022-10-15T16:38:54;15.50;99.90
5011;DHT22;2524;54.364;10.072;2022-10-15T16:41:19;15.50;99.90
5011;DHT22;2524;54.364;10.072;2022-10-15T16:43:46;15.50;99.90
5011;DHT22;2524;54.364;10.072;2022-10-15T16:46:12;15.50;99.90
5011;DHT22;2524;54.364;10.072;2022-10-15T16:48:38;15.40;99.90
5011;DHT22;2524;54.364;10.072;2022-10-15T16:51:15;15.40;99.90
5011;DHT22;2524;54.364;10.072;2022-10-15T16:53:51;15.40;99.90
5011;DHT22;2524;54.364;10.072;2022-10-15T16:56:26;15.40;99.90
5011;DHT22;2524;54.364;10.072;2022-10-15T16:58:52;15.30;99.90
5011;DHT22;2524;54.364;10.072;2022-10-15T17:01:21;15.30;99.90
5011;DHT22;2524;54.364;10.072;2022-10-15T17:03:47;15.20;99.90
5011;DHT22;2524;54.364;10.072;2022-10-15T17:06:16;15.20;99.90
5011;DHT22;2524;54.364;10.072;2022-10-15T17:08:50;15.20;99.90
5011;DHT22;2524;54.364;10.072;2022-10-15T17:13:47;15.10;99.90
5011;DHT22;2524;54.364;10.072;2022-10-15T17:16:18;15.20;99.90
5011;DHT22;2524;54.364;10.072;2022-10-15T17:18:44;15.10;99.90
5011;DHT22;2524;54.364;10.072;2022-10-15T17:21:16;15.10;99.90
5011;DHT22;2524;54.364;10.072;2022-10-15T17:23:42;15.00;99.90
5011;DHT22;2524;54.364;10.072;2022-10-15T17:26:14;15.00;99.90
5011;DHT22;2524;54.364;10.072;2022-10-15T17:28:42;15.10;99.90
5011;DHT22;2524;54.364;10.072;2022-10-15T17:31:10;14.90;99.90
5011;DHT22;2524;54.364;10.072;2022-10-15T17:33:37;14.90;99.90
5011;DHT22;2524;54.364;10.072;2022-10-15T17:36:15;14.90;99.90
5011;DHT22;2524;54.364;10.072;2022-10-15T17:38:41;14.90;99.90
5011;DHT22;2524;54.364;10.072;2022-10-15T17:41:15;14.90;99.90
5011;DHT22;2524;54.364;10.072;2022-10-15T17:43:42;14.90;99.90
5011;DHT22;2524;54.364;10.072;2022-10-15T17:46:13;14.90;99.90
5011;DHT22;2524;54.364;10.072;2022-10-15T17:48:39;14.90;99.90